New Midway, Maryland
Current Conditions -  °F | °C
As of 7:45 AM on Friday 19 Dec 2014 (Local Time) from KFDK Reporting Station
Overcast Overcast  
Wind Chill: 28°   Ceiling: 3100
Heat Index: 36°   Visibility: 10mi
Dew Point: 21°   Wind: 10mph
Humidity: 56%   Direction: 320°NW
Pressure: 30.16"   Gusts: 16mph
Location:  39.57°N, 77.29°W
Report Text: KFDK 191245Z 32009G14KT 10SM OVC031 02/M06 A3016
Loading
Personal Weather Stations






























Interactive Weather Map New forecast layout! Learn more

10-Day Weather Forecast

Advertisements
Track Severe Weather on mobile